Kankakee, IL

6:28 PM CDT on October 21, 2019 (GMT -0500)
Greater Kankakee

Weather History for KIKK - August, 2019

Change the Weather History Date:

Friday, August 30, 2019

  Actual Average Record
Temperature  
Mean Temperature 66 °F -  
Max Temperature 76 °F 83 °F 96 °F (1984)
Min Temperature 56 °F 59 °F 46 °F (1986)
Cooling Degree Days 1    
Growing Degree Days 16 (Base 50)    
Moisture  
Dew Point 55 °F    
Average Humidity 67    
Maximum Humidity 92    
Minimum Humidity 47    
Precipitation  
Precipitation 0.00 in - - ()
Sea Level Pressure  
Sea Level Pressure 30.12 in    
Wind  
Wind Speed 5 mph (North)    
Max Wind Speed 10 mph    
Max Gust Speed -    
Visibility 10 miles    
Events      
Averages and records for this station are not official NWS values.
T = Trace of Precipitation, MM = Missing Value Source: NWS Daily Summary

Daily Weather History Graph

Daily Weather History Graph

Search for Another Location

Airport or City:

Astronomy

Aug. 30, 2019 Rise Set
Actual Time 6:15 AM CDT 7:27 PM CDT
Civil Twilight 5:47 AM CDT 7:55 PM CDT
Nautical Twilight 5:13 AM CDT 8:29 PM CDT
Astronomical Twilight 4:37 AM CDT 9:05 PM CDT
Moon 6:15 AM CDT (8/30) 8:03 PM CDT (8/30)
Length of Visible Light 14h 08m
Length of Day
13h 11m
New Moon, 0% of the Moon is Illuminated
Aug 30
New Moon
Sep 5
First Quarter
Sep 13
Full
Sep 21
Last Quarter
Sep 28
New

Hourly Weather History & Observations

Time (CDT) Temp. Dew Point Humidity Pressure Visibility Wind Dir Wind Speed Gust Speed Precip Events Conditions
12:15 AM 72.5 °F 70.2 °F 92% 29.97 in 10.0 mi WNW 8.1 mph - N/A   Scattered Clouds
12:35 AM 72.0 °F 69.6 °F 92% 29.98 in 10.0 mi NNW 8.1 mph - N/A   Mostly Cloudy
1:15 AM 70.9 °F 62.4 °F 75% 29.99 in 10.0 mi NW 5.8 mph - N/A   Overcast
1:35 AM 70.0 °F 63.0 °F 78% 29.99 in 10.0 mi NNW 8.1 mph - N/A   Overcast
1:55 AM 68.5 °F 61.2 °F 77% 29.99 in 10.0 mi NNW 6.9 mph - N/A   Scattered Clouds
2:15 AM 67.1 °F 58.3 °F 73% 29.99 in 10.0 mi NNW 5.8 mph - N/A   Clear
2:35 AM 65.3 °F 58.1 °F 77% 29.99 in 10.0 mi NW 4.6 mph - N/A   Clear
2:55 AM 64.9 °F 56.5 °F 74% 30.00 in 10.0 mi NW 4.6 mph - N/A   Clear
3:15 AM 63.5 °F 55.6 °F 75% 30.00 in 10.0 mi NW 4.6 mph - N/A   Clear
3:35 AM 62.8 °F 54.7 °F 75% 30.01 in 10.0 mi WNW 4.6 mph - N/A   Clear
3:55 AM 60.8 °F 54.9 °F 81% 30.02 in 10.0 mi West 5.8 mph - N/A   Clear
4:15 AM 60.4 °F 54.7 °F 81% 30.03 in 10.0 mi WNW 5.8 mph - N/A   Clear
4:35 AM 60.1 °F 54.0 °F 80% 30.03 in 10.0 mi NNW 3.5 mph - N/A   Clear
4:55 AM 60.1 °F 54.0 °F 80% 30.04 in 10.0 mi NW 4.6 mph - N/A   Clear
5:15 AM 60.1 °F 53.6 °F 79% 30.05 in 10.0 mi WNW 3.5 mph - N/A   Clear
5:35 AM 60.1 °F 53.4 °F 79% 30.05 in 10.0 mi Calm Calm - N/A   Clear
5:55 AM 59.2 °F 53.4 °F 81% 30.06 in 10.0 mi West 3.5 mph - N/A   Clear
6:15 AM 58.1 °F 53.8 °F 86% 30.06 in 10.0 mi NNW 5.8 mph - N/A   Clear
6:35 AM 58.5 °F 54.3 °F 86% 30.08 in 10.0 mi NW 4.6 mph - N/A   Clear
6:55 AM 59.9 °F 54.5 °F 82% 30.09 in 10.0 mi Calm Calm - N/A   Clear
7:15 AM 61.0 °F 55.0 °F 81% 30.10 in 10.0 mi Calm Calm - N/A   Clear
7:35 AM 61.9 °F 55.6 °F 80% 30.11 in 10.0 mi NNW 3.5 mph - N/A   Clear
7:55 AM 63.7 °F 56.1 °F 76% 30.11 in 10.0 mi Calm Calm - N/A   Clear
8:15 AM 65.5 °F 55.6 °F 70% 30.11 in 10.0 mi North 5.8 mph - N/A   Clear
8:35 AM 67.1 °F 55.0 °F 65% 30.11 in 10.0 mi North 4.6 mph - N/A   Clear
8:50 AM 68.7 °F 55.6 °F 63% 30.10 in 10.0 mi North 6.9 mph - N/A   Clear
9:15 AM 69.4 °F 55.8 °F 62% 30.12 in 10.0 mi NNE 6.9 mph - N/A   Clear
9:35 AM 70.2 °F 56.3 °F 61% 30.12 in 10.0 mi NNE 8.1 mph - N/A   Clear
9:55 AM 70.5 °F 56.8 °F 62% 30.12 in 10.0 mi North 6.9 mph - N/A   Clear
10:15 AM 70.7 °F 56.7 °F 61% 30.12 in 10.0 mi NE 6.9 mph - N/A   Clear
10:35 AM 71.8 °F 56.1 °F 58% 30.12 in 10.0 mi NNE 8.1 mph - N/A   Clear
10:55 AM 72.9 °F 54.7 °F 53% 30.13 in 10.0 mi NE 8.1 mph - N/A   Clear
11:15 AM 73.8 °F 55.4 °F 53% 30.13 in 10.0 mi NE 8.1 mph - N/A   Clear
11:35 AM 74.3 °F 55.4 °F 52% 30.13 in 10.0 mi North 8.1 mph - N/A   Clear
11:55 AM 74.7 °F 55.9 °F 52% 30.13 in 10.0 mi ENE 6.9 mph - N/A   Clear
12:15 PM 75.0 °F 55.2 °F 50% 30.14 in 10.0 mi North 5.8 mph - N/A   Clear
12:35 PM 75.7 °F 54.7 °F 48% 30.14 in 10.0 mi WNW 4.6 mph - N/A   Clear
12:55 PM 75.2 °F 53.6 °F 47% 30.14 in 10.0 mi NW 4.6 mph - N/A   Clear
1:15 PM 75.7 °F 55.0 °F 49% 30.14 in 10.0 mi NW 5.8 mph - N/A   Clear
1:35 PM 76.1 °F 55.0 °F 48% 30.14 in 10.0 mi North 5.8 mph - N/A   Clear
1:55 PM 75.7 °F 55.2 °F 49% 30.14 in 10.0 mi NNW 10.4 mph - N/A   Clear
2:15 PM 75.6 °F 55.4 °F 49% 30.14 in 10.0 mi NNW 6.9 mph - N/A   Clear
2:35 PM 75.2 °F 55.2 °F 50% 30.13 in 10.0 mi North 4.6 mph - N/A   Clear
2:55 PM 75.0 °F 54.3 °F 48% 30.13 in 10.0 mi NW 6.9 mph - N/A   Clear
3:15 PM 74.7 °F 54.1 °F 49% 30.13 in 10.0 mi North 4.6 mph - N/A   Clear
3:35 PM 74.7 °F 54.5 °F 49% 30.14 in 10.0 mi NNW 4.6 mph - N/A   Clear
3:55 PM 74.8 °F 54.1 °F 48% 30.14 in 10.0 mi Calm Calm - N/A   Clear
4:15 PM 73.9 °F 54.3 °F 50% 30.14 in 10.0 mi NNW 6.9 mph - N/A   Clear
4:35 PM 73.8 °F 54.5 °F 51% 30.14 in 10.0 mi NNW 6.9 mph - N/A   Clear
4:55 PM 73.4 °F 54.1 °F 51% 30.14 in 10.0 mi North 5.8 mph - N/A   Clear
5:15 PM 72.9 °F 54.7 °F 53% 30.14 in 10.0 mi North 4.6 mph - N/A   Scattered Clouds
5:35 PM 73.9 °F 53.6 °F 49% 30.14 in 10.0 mi NNE 6.9 mph - N/A   Clear
5:55 PM 73.2 °F 53.4 °F 50% 30.14 in 10.0 mi North 4.6 mph - N/A   Clear
6:15 PM 72.0 °F 53.4 °F 52% 30.15 in 10.0 mi NNE 6.9 mph - N/A   Clear
6:35 PM 69.3 °F 53.8 °F 58% 30.14 in 10.0 mi NNE 6.9 mph - N/A   Clear
6:55 PM 68.4 °F 55.4 °F 63% 30.14 in 10.0 mi NE 9.2 mph - N/A   Clear
7:15 PM 67.3 °F 55.4 °F 66% 30.15 in 10.0 mi ENE 6.9 mph - N/A   Clear
7:35 PM 65.3 °F 55.6 °F 71% 30.16 in 10.0 mi ENE 5.8 mph - N/A   Clear
7:55 PM 63.5 °F 55.4 °F 75% 30.17 in 10.0 mi ENE 5.8 mph - N/A   Clear
8:15 PM 62.8 °F 54.0 °F 73% 30.18 in 10.0 mi ENE 3.5 mph - N/A   Clear
8:35 PM 62.6 °F 54.0 °F 73% 30.19 in 10.0 mi Calm Calm - N/A   Clear
8:55 PM 61.7 °F 54.1 °F 76% 30.21 in 10.0 mi Calm Calm - N/A   Clear
9:15 PM 61.9 °F 54.1 °F 76% 30.21 in 10.0 mi NE 3.5 mph - N/A   Clear
9:35 PM 60.8 °F 54.3 °F 79% 30.21 in 10.0 mi ENE 4.6 mph - N/A   Clear
9:55 PM 60.4 °F 54.5 °F 81% 30.22 in 10.0 mi Calm Calm - N/A   Clear
10:15 PM 60.4 °F 53.6 °F 78% 30.22 in 10.0 mi Calm Calm - N/A   Clear
10:35 PM 60.8 °F 53.2 °F 76% 30.23 in 10.0 mi Calm Calm - N/A   Clear
10:55 PM 59.9 °F 52.9 °F 78% 30.23 in 10.0 mi Calm Calm - N/A   Clear
11:15 PM 57.6 °F 52.9 °F 84% 30.23 in 10.0 mi East 3.5 mph - N/A   Clear
11:35 PM 56.8 °F 53.4 °F 88% 30.23 in 10.0 mi ESE 4.6 mph - N/A   Clear
11:55 PM 58.6 °F 52.9 °F 81% 30.24 in 10.0 mi Calm Calm - N/A   Clear